createdAt,value
2022-12-31T00:00:32.676Z,101285.75
2022-12-31T00:03:35.238Z,101291.47
2022-12-31T00:06:37.827Z,101294.34
2022-12-31T00:09:40.759Z,101290.19
2022-12-31T00:12:44.095Z,101286.84
2022-12-31T00:15:47.013Z,101274.47
2022-12-31T00:18:52.618Z,101278.56
2022-12-31T00:21:55.020Z,101279.03
2022-12-31T00:24:57.667Z,101281.69
2022-12-31T00:28:00.122Z,101279.03
2022-12-31T00:31:20.649Z,101281.22
2022-12-31T00:34:23.646Z,101295.75
2022-12-31T00:37:26.041Z,101288.91
2022-12-31T00:40:29.747Z,101288.03
2022-12-31T00:43:32.871Z,101290.38
2022-12-31T00:49:40.097Z,101293.59
2022-12-31T00:52:42.547Z,101295.09
2022-12-31T00:55:45.183Z,101300.59
2022-12-31T00:58:47.917Z,101296.00
2022-12-31T01:01:50.700Z,101306.06
2022-12-31T01:04:53.571Z,101310.06
2022-12-31T01:07:56.184Z,101312.59
2022-12-31T01:11:18.665Z,101308.00
2022-12-31T01:14:21.470Z,101308.81
2022-12-31T01:17:24.298Z,101307.50
2022-12-31T01:20:27.856Z,101311.91
2022-12-31T01:23:31.217Z,101312.94
2022-12-31T01:26:33.939Z,101314.13
2022-12-31T01:29:36.389Z,101317.31
2022-12-31T01:32:39.102Z,101315.47
2022-12-31T01:35:41.831Z,101302.22
2022-12-31T01:38:44.818Z,101293.38
2022-12-31T01:41:47.882Z,101291.53
2022-12-31T01:44:54.371Z,101282.28
2022-12-31T01:47:59.698Z,101297.19
2022-12-31T01:51:02.420Z,101295.66
2022-12-31T01:54:08.369Z,101305.59
2022-12-31T01:57:11.860Z,101311.47
2022-12-31T02:00:14.798Z,101319.94
2022-12-31T02:03:22.627Z,101314.09
2022-12-31T02:07:05.218Z,101326.28
2022-12-31T02:10:08.080Z,101312.59
2022-12-31T02:13:11.203Z,101314.91
2022-12-31T02:16:27.956Z,101316.41
2022-12-31T02:19:49.243Z,101328.06
2022-12-31T02:23:06.472Z,101334.81
2022-12-31T02:26:14.999Z,101329.59
2022-12-31T02:29:55.341Z,101328.97
2022-12-31T02:33:04.716Z,101333.78
2022-12-31T02:36:14.817Z,101324.28
2022-12-31T02:39:18.462Z,101323.13
2022-12-31T02:42:20.854Z,101328.72
2022-12-31T02:45:29.712Z,101327.22
2022-12-31T02:48:47.282Z,101334.81
2022-12-31T02:51:54.301Z,101330.00
2022-12-31T02:55:21.965Z,101327.78
2022-12-31T02:59:09.959Z,101333.94
2022-12-31T03:02:19.591Z,101329.81
2022-12-31T03:05:27.104Z,101329.69
2022-12-31T03:08:31.191Z,101333.28
2022-12-31T03:11:52.852Z,101339.75
2022-12-31T03:14:55.485Z,101322.44
2022-12-31T03:18:01.533Z,101304.00
2022-12-31T03:21:29.767Z,101300.00
2022-12-31T03:24:51.038Z,101313.78
2022-12-31T03:27:54.259Z,101312.91
2022-12-31T03:30:59.781Z,101305.63
2022-12-31T03:34:02.524Z,101309.09
2022-12-31T03:37:04.942Z,101330.16
2022-12-31T03:40:09.458Z,101335.59
2022-12-31T03:43:14.885Z,101349.22
2022-12-31T03:46:17.292Z,101339.03
2022-12-31T03:49:20.074Z,101333.44
2022-12-31T03:52:23.146Z,101334.47
2022-12-31T03:55:26.104Z,101339.97
2022-12-31T03:58:28.688Z,101347.06
2022-12-31T04:01:31.272Z,101355.88
2022-12-31T04:04:34.255Z,101347.50
2022-12-31T04:07:36.770Z,101350.59
2022-12-31T04:10:39.453Z,101349.81
2022-12-31T04:13:42.118Z,101348.03
2022-12-31T04:16:45.626Z,101348.03
2022-12-31T04:19:49.049Z,101358.28
2022-12-31T04:22:51.502Z,101335.75
2022-12-31T04:25:54.311Z,101322.94
2022-12-31T04:28:57.029Z,101320.06
2022-12-31T04:31:59.559Z,101303.75
2022-12-31T04:35:02.297Z,101311.00
2022-12-31T04:38:04.960Z,101311.72
2022-12-31T04:41:20.942Z,101301.88
2022-12-31T04:44:23.655Z,101303.47
2022-12-31T04:47:27.391Z,101302.94
2022-12-31T04:50:31.237Z,101300.03
2022-12-31T04:53:33.796Z,101299.91
2022-12-31T04:56:36.771Z,101288.72
2022-12-31T04:59:39.973Z,101295.56
2022-12-31T05:02:42.560Z,101300.31
2022-12-31T05:05:45.371Z,101294.41
2022-12-31T05:08:48.818Z,101290.03
2022-12-31T05:11:51.492Z,101290.50
2022-12-31T05:14:54.145Z,101281.16
2022-12-31T05:17:56.770Z,101300.47
2022-12-31T05:20:59.897Z,101322.47
2022-12-31T05:24:02.501Z,101336.09
2022-12-31T05:27:05.180Z,101327.97
2022-12-31T05:30:08.318Z,101326.13
2022-12-31T05:33:11.048Z,101320.88
2022-12-31T05:36:14.718Z,101317.38
2022-12-31T05:39:18.466Z,101315.56
2022-12-31T05:42:21.803Z,101305.88
2022-12-31T05:45:30.408Z,101306.22
2022-12-31T05:48:33.605Z,101318.19
2022-12-31T05:51:36.431Z,101318.81
2022-12-31T05:54:38.843Z,101326.25
2022-12-31T05:57:41.673Z,101349.94
2022-12-31T06:00:44.906Z,101338.28
2022-12-31T06:03:47.446Z,101334.13
2022-12-31T06:06:50.410Z,101354.53
2022-12-31T06:09:52.955Z,101348.22
2022-12-31T06:12:56.368Z,101351.44
2022-12-31T06:16:04.435Z,101346.59
2022-12-31T06:19:07.433Z,101341.00
2022-12-31T06:22:10.662Z,101330.56
2022-12-31T06:25:13.149Z,101324.50
2022-12-31T06:28:20.048Z,101335.16
2022-12-31T06:31:23.495Z,101345.00
2022-12-31T06:34:26.000Z,101337.22
2022-12-31T06:37:28.759Z,101348.00
2022-12-31T06:40:31.193Z,101353.84
2022-12-31T06:43:35.198Z,101349.94
2022-12-31T06:46:38.023Z,101356.22
2022-12-31T06:49:40.894Z,101358.53
2022-12-31T06:52:43.964Z,101376.16
2022-12-31T06:55:48.816Z,101390.94
2022-12-31T06:58:52.447Z,101404.19
2022-12-31T07:02:20.397Z,101415.75
2022-12-31T07:05:32.629Z,101420.00
2022-12-31T07:08:37.959Z,101418.72
2022-12-31T07:12:20.622Z,101414.38
2022-12-31T07:15:41.144Z,101409.66
2022-12-31T07:18:51.276Z,101419.41
2022-12-31T07:21:56.786Z,101428.66
2022-12-31T07:25:00.128Z,101417.09
2022-12-31T07:28:15.794Z,101411.59
2022-12-31T07:31:49.369Z,101420.06
2022-12-31T07:35:10.927Z,101424.53
2022-12-31T07:38:41.465Z,101431.38
2022-12-31T07:41:44.501Z,101438.03
2022-12-31T07:45:20.794Z,101434.69
2022-12-31T07:48:26.626Z,101426.31
2022-12-31T07:51:29.773Z,101427.19
2022-12-31T07:54:32.485Z,101434.63
2022-12-31T07:57:43.419Z,101428.09
2022-12-31T08:00:46.402Z,101425.06
2022-12-31T08:03:57.697Z,101429.25
2022-12-31T08:07:28.121Z,101431.09
2022-12-31T08:10:34.308Z,101437.56
2022-12-31T08:13:37.634Z,101435.97
2022-12-31T08:16:40.445Z,101426.78
2022-12-31T08:19:43.940Z,101420.38
2022-12-31T08:23:17.659Z,101425.28
2022-12-31T08:26:34.448Z,101431.69
2022-12-31T08:30:04.014Z,101444.38
2022-12-31T08:33:06.525Z,101440.41
2022-12-31T08:36:50.241Z,101452.84
2022-12-31T08:40:00.568Z,101436.72
2022-12-31T08:43:25.101Z,101461.03
2022-12-31T08:46:53.643Z,101480.34
2022-12-31T08:49:56.580Z,101490.56
2022-12-31T08:52:59.743Z,101490.03
2022-12-31T08:56:27.942Z,101485.06
2022-12-31T09:00:05.291Z,101477.88
2022-12-31T09:03:30.801Z,101469.16
2022-12-31T09:06:56.348Z,101461.88
2022-12-31T09:10:16.908Z,101446.72
2022-12-31T09:13:40.357Z,101434.28
2022-12-31T09:16:56.552Z,101422.50
2022-12-31T09:19:59.395Z,101432.28
2022-12-31T09:23:02.976Z,101446.22
2022-12-31T09:26:17.226Z,101453.16
2022-12-31T09:29:44.478Z,101461.09
2022-12-31T09:33:06.678Z,101459.81
2022-12-31T09:36:19.355Z,101469.00
2022-12-31T09:39:27.986Z,101457.56
2022-12-31T09:42:59.212Z,101466.75
2022-12-31T09:46:32.633Z,101466.91
2022-12-31T09:49:55.363Z,101466.91
2022-12-31T09:52:58.092Z,101459.88
2022-12-31T09:56:15.483Z,101455.16
2022-12-31T09:59:28.226Z,101462.19
2022-12-31T10:03:05.165Z,101439.91
2022-12-31T10:06:26.216Z,101444.75
2022-12-31T10:09:55.464Z,101402.31
2022-12-31T10:13:29.099Z,101427.91
2022-12-31T10:16:53.320Z,101403.22
2022-12-31T10:20:19.999Z,101414.19
2022-12-31T10:23:38.048Z,101417.94
2022-12-31T10:26:59.444Z,101440.09
2022-12-31T10:30:20.755Z,101418.91
2022-12-31T10:33:53.978Z,101425.94
2022-12-31T10:37:18.193Z,101443.53
2022-12-31T10:40:25.480Z,101442.88
2022-12-31T10:43:48.937Z,101450.34
2022-12-31T10:47:13.986Z,101432.44
2022-12-31T10:50:47.597Z,101444.44
2022-12-31T10:53:59.022Z,101468.84
2022-12-31T10:57:29.661Z,101457.63
2022-12-31T11:00:43.145Z,101456.13
2022-12-31T11:04:22.973Z,101459.81
2022-12-31T11:08:00.564Z,101465.56
2022-12-31T11:11:14.054Z,101464.38
2022-12-31T11:14:31.511Z,101472.44
2022-12-31T11:17:48.973Z,101461.41
2022-12-31T11:21:21.620Z,101451.31
2022-12-31T11:24:37.169Z,101451.03
2022-12-31T11:28:11.403Z,101458.38
2022-12-31T11:31:49.699Z,101468.44
2022-12-31T11:34:55.017Z,101464.44
2022-12-31T11:38:24.781Z,101472.44
2022-12-31T11:41:27.482Z,101469.88
2022-12-31T11:45:02.384Z,101461.16
2022-12-31T11:48:30.249Z,101456.59
2022-12-31T11:52:10.472Z,101457.09
2022-12-31T11:55:19.351Z,101446.91
2022-12-31T11:58:28.623Z,101451.16
2022-12-31T12:01:41.885Z,101437.22
2022-12-31T12:04:48.474Z,101428.19
2022-12-31T12:07:52.228Z,101433.88
2022-12-31T12:11:04.032Z,101425.31
2022-12-31T12:14:32.867Z,101428.31
2022-12-31T12:17:35.670Z,101425.63
2022-12-31T12:20:41.397Z,101439.78
2022-12-31T12:24:16.509Z,101434.91
2022-12-31T12:27:30.312Z,101437.06
2022-12-31T12:30:38.508Z,101434.19
2022-12-31T12:33:46.448Z,101433.09
2022-12-31T12:36:49.031Z,101432.28
2022-12-31T12:39:58.097Z,101419.19
2022-12-31T12:43:02.737Z,101428.94
2022-12-31T12:46:17.941Z,101423.91
2022-12-31T12:49:37.551Z,101417.25
2022-12-31T12:53:17.365Z,101411.03
2022-12-31T12:56:35.204Z,101396.41
2022-12-31T12:59:47.592Z,101385.88
2022-12-31T13:03:02.388Z,101393.06
2022-12-31T13:06:27.813Z,101403.47
2022-12-31T13:09:44.865Z,101426.22
2022-12-31T13:13:23.847Z,101419.41
2022-12-31T13:16:33.219Z,101409.16
2022-12-31T13:19:45.049Z,101408.91
2022-12-31T13:23:01.032Z,101403.97
2022-12-31T13:26:06.184Z,101421.88
2022-12-31T13:29:18.892Z,101421.16
2022-12-31T13:32:28.166Z,101425.44
2022-12-31T13:35:38.119Z,101435.75
2022-12-31T13:38:52.953Z,101451.03
2022-12-31T13:41:59.088Z,101440.31
2022-12-31T13:45:10.273Z,101448.78
2022-12-31T13:48:21.989Z,101446.63
2022-12-31T13:51:35.482Z,101452.59
2022-12-31T13:55:05.300Z,101439.34
2022-12-31T13:58:26.102Z,101433.06
2022-12-31T14:01:34.131Z,101450.41
2022-12-31T14:04:42.586Z,101462.03
2022-12-31T14:07:53.942Z,101467.09
2022-12-31T14:11:18.911Z,101465.59
2022-12-31T14:14:21.326Z,101474.00
2022-12-31T14:17:40.182Z,101468.00
2022-12-31T14:20:58.429Z,101465.44
2022-12-31T14:24:15.931Z,101471.19
2022-12-31T14:27:27.069Z,101478.72
2022-12-31T14:30:36.688Z,101480.56
2022-12-31T14:34:01.931Z,101487.66
2022-12-31T14:37:42.758Z,101483.09
2022-12-31T14:41:10.290Z,101486.69
2022-12-31T14:44:12.704Z,101491.03
2022-12-31T14:47:40.938Z,101499.75
2022-12-31T14:50:46.070Z,101489.50
2022-12-31T14:53:53.576Z,101489.75
2022-12-31T14:56:56.140Z,101486.78
2022-12-31T15:00:00.907Z,101485.66
2022-12-31T15:03:15.534Z,101485.53
2022-12-31T15:06:24.304Z,101491.75
2022-12-31T15:09:48.693Z,101490.16
2022-12-31T15:13:12.944Z,101476.59
2022-12-31T15:16:34.451Z,101484.03
2022-12-31T15:20:14.992Z,101496.94
2022-12-31T15:23:25.758Z,101511.47
2022-12-31T15:26:31.552Z,101515.63
2022-12-31T15:29:42.712Z,101509.06
2022-12-31T15:32:47.460Z,101516.41
2022-12-31T15:35:56.079Z,101527.31
2022-12-31T15:39:19.654Z,101520.19
2022-12-31T15:42:49.132Z,101502.31
2022-12-31T15:45:56.102Z,101515.44
2022-12-31T15:49:16.008Z,101530.47
2022-12-31T15:52:25.181Z,101533.06
2022-12-31T15:55:38.643Z,101530.88
2022-12-31T15:58:41.506Z,101522.41
2022-12-31T16:01:45.639Z,101524.47
2022-12-31T16:04:50.035Z,101524.16
2022-12-31T16:08:01.730Z,101540.00
2022-12-31T16:11:05.859Z,101540.78
2022-12-31T16:14:19.373Z,101534.97
2022-12-31T16:17:30.562Z,101532.59
2022-12-31T16:20:34.768Z,101537.53
2022-12-31T16:23:42.167Z,101532.50
2022-12-31T16:26:52.087Z,101528.81
2022-12-31T16:30:16.398Z,101522.56
2022-12-31T16:33:19.150Z,101513.03
2022-12-31T16:36:23.926Z,101524.66
2022-12-31T16:39:38.973Z,101532.25
2022-12-31T16:42:44.441Z,101534.47
2022-12-31T16:45:47.434Z,101523.59
2022-12-31T16:48:54.242Z,101533.06
2022-12-31T16:52:21.201Z,101538.56
2022-12-31T16:55:29.435Z,101525.84
2022-12-31T16:58:36.555Z,101534.00
2022-12-31T17:01:39.918Z,101542.97
2022-12-31T17:04:55.388Z,101534.00
2022-12-31T17:08:22.779Z,101536.41
2022-12-31T17:11:34.365Z,101534.81
2022-12-31T17:14:49.959Z,101526.88
2022-12-31T17:18:02.795Z,101531.84
2022-12-31T17:21:09.095Z,101536.56
2022-12-31T17:24:13.612Z,101536.88
2022-12-31T17:27:16.605Z,101549.50
2022-12-31T17:30:22.060Z,101544.69
2022-12-31T17:33:25.163Z,101538.94
2022-12-31T17:36:27.713Z,101544.56
2022-12-31T17:39:44.409Z,101541.34
2022-12-31T17:42:46.878Z,101527.84
2022-12-31T17:45:54.345Z,101535.75
2022-12-31T17:49:01.817Z,101531.28
2022-12-31T17:52:04.458Z,101532.53
2022-12-31T17:55:07.703Z,101524.16
2022-12-31T17:58:26.141Z,101546.63
2022-12-31T18:01:32.172Z,101556.25
2022-12-31T18:04:34.905Z,101537.78
2022-12-31T18:07:37.593Z,101527.22
2022-12-31T18:10:41.975Z,101532.25
2022-12-31T18:13:44.940Z,101527.78
2022-12-31T18:16:48.343Z,101528.34
2022-12-31T18:20:06.752Z,101534.09
2022-12-31T18:23:27.646Z,101536.88
2022-12-31T18:26:32.692Z,101531.28
2022-12-31T18:29:35.203Z,101536.16
2022-12-31T18:32:38.944Z,101536.56
2022-12-31T18:36:17.062Z,101529.06
2022-12-31T18:39:05.688Z,101540.78
2022-12-31T18:42:13.603Z,101539.13
2022-12-31T18:45:19.400Z,101542.25
2022-12-31T18:48:22.246Z,101533.66
2022-12-31T18:51:31.479Z,101543.03
2022-12-31T18:54:34.648Z,101553.88
2022-12-31T18:57:37.516Z,101548.06
2022-12-31T19:00:40.310Z,101549.97
2022-12-31T19:03:43.177Z,101547.88
2022-12-31T19:06:46.879Z,101546.84
2022-12-31T19:09:54.622Z,101539.38
2022-12-31T19:13:01.097Z,101528.72
2022-12-31T19:16:03.646Z,101518.31
2022-12-31T19:19:08.687Z,101505.31
2022-12-31T19:22:15.406Z,101512.09
2022-12-31T19:25:26.977Z,101528.84
2022-12-31T19:28:29.626Z,101553.00
2022-12-31T19:31:32.157Z,101540.88
2022-12-31T19:34:34.961Z,101557.44
2022-12-31T19:37:37.905Z,101561.47
2022-12-31T19:40:41.181Z,101568.72
2022-12-31T19:43:44.712Z,101558.41
2022-12-31T19:46:47.361Z,101554.41
2022-12-31T19:49:50.018Z,101566.09
2022-12-31T19:52:55.044Z,101558.78
2022-12-31T19:55:57.528Z,101547.09
2022-12-31T19:59:07.428Z,101549.25
2022-12-31T20:02:10.429Z,101536.25
2022-12-31T20:05:15.384Z,101535.34
2022-12-31T20:08:20.313Z,101539.69
2022-12-31T20:11:24.456Z,101548.38
2022-12-31T20:14:26.950Z,101549.19
2022-12-31T20:17:29.869Z,101552.84
2022-12-31T20:20:32.428Z,101566.94
2022-12-31T20:23:35.189Z,101559.03
2022-12-31T20:26:37.719Z,101568.91
2022-12-31T20:29:41.058Z,101570.00
2022-12-31T20:32:43.478Z,101569.53
2022-12-31T20:35:46.282Z,101566.91
2022-12-31T20:38:49.331Z,101568.16
2022-12-31T20:41:51.803Z,101552.56
2022-12-31T20:44:54.930Z,101551.06
2022-12-31T20:47:57.625Z,101554.19
2022-12-31T20:51:00.321Z,101564.56
2022-12-31T20:54:06.040Z,101560.91
2022-12-31T20:57:08.457Z,101576.47
2022-12-31T21:00:12.500Z,101585.28
2022-12-31T21:03:53.514Z,101590.69
2022-12-31T21:06:38.057Z,101585.41
2022-12-31T21:09:40.741Z,101589.88
2022-12-31T21:12:43.559Z,101584.25
2022-12-31T21:15:50.433Z,101587.25
2022-12-31T21:18:54.162Z,101586.44
2022-12-31T21:21:56.734Z,101588.59
2022-12-31T21:25:01.250Z,101588.84
2022-12-31T21:28:03.915Z,101587.41
2022-12-31T21:31:08.072Z,101580.94
2022-12-31T21:34:10.629Z,101569.81
2022-12-31T21:37:13.322Z,101581.72
2022-12-31T21:40:18.466Z,101568.09
2022-12-31T21:43:21.110Z,101567.25
2022-12-31T21:46:23.977Z,101565.25
2022-12-31T21:49:26.731Z,101590.22
2022-12-31T21:52:31.701Z,101600.66
2022-12-31T21:55:56.294Z,101595.41
2022-12-31T21:59:17.389Z,101604.44
2022-12-31T22:02:39.100Z,101621.53
2022-12-31T22:06:12.206Z,101625.47
2022-12-31T22:09:15.251Z,101619.69
2022-12-31T22:12:18.009Z,101618.25
2022-12-31T22:15:20.575Z,101636.69
2022-12-31T22:18:23.682Z,101620.88
2022-12-31T22:21:26.779Z,101615.38
2022-12-31T22:24:29.675Z,101618.31
2022-12-31T22:27:32.351Z,101620.97
2022-12-31T22:30:34.973Z,101626.56
2022-12-31T22:33:38.072Z,101613.84
2022-12-31T22:36:40.670Z,101601.47
2022-12-31T22:39:45.058Z,101599.19
2022-12-31T22:42:48.100Z,101603.06
2022-12-31T22:45:50.515Z,101603.88
2022-12-31T22:48:54.768Z,101607.53
2022-12-31T22:51:59.923Z,101598.59
2022-12-31T22:55:06.120Z,101595.41
2022-12-31T22:58:08.573Z,101594.59
2022-12-31T23:01:16.119Z,101593.25
2022-12-31T23:04:18.745Z,101590.97
2022-12-31T23:07:21.453Z,101592.22
2022-12-31T23:10:42.341Z,101587.53
2022-12-31T23:14:03.959Z,101583.06
2022-12-31T23:17:29.835Z,101597.84
2022-12-31T23:20:52.796Z,101598.41
2022-12-31T23:23:55.561Z,101615.16
2022-12-31T23:26:58.674Z,101596.13
2022-12-31T23:30:01.393Z,101610.22
2022-12-31T23:33:03.990Z,101608.50
2022-12-31T23:36:07.096Z,101623.50
2022-12-31T23:39:10.386Z,101617.44
2022-12-31T23:42:12.988Z,101614.00
2022-12-31T23:45:16.001Z,101614.00
2022-12-31T23:48:18.664Z,101611.38
2022-12-31T23:51:21.896Z,101604.50
2022-12-31T23:54:24.279Z,101607.13
2022-12-31T23:57:26.989Z,101606.56
